Time;durP1;ratioP1;P1;durP2;ratioP2;P2;SDS_P1;SDS_P2;PMS_P1;PMS_P2;Temp;Humidity;BMP_temperature;BMP_pressure;BME280_temperature;BME280_humidity;BME280_pressure;Samples;Min_cycle;Max_cycle;Signal;HPM_P1;HPM_P2
2022/01/08 00:01:09;;;;;;;1.52;1.20;;;2.90;99.90;;;;;;5028851;28;20625;-76
2022/01/08 00:03:36;;;;;;;1.42;1.15;;;2.90;99.90;;;;;;5028729;28;20201;-75
2022/01/08 00:06:03;;;;;;;1.35;1.00;;;2.90;99.90;;;;;;5027077;28;20221;-76
2022/01/08 00:08:30;;;;;;;2.30;1.25;;;3.00;99.90;;;;;;5025940;28;20242;-76
2022/01/08 00:10:57;;;;;;;1.60;1.17;;;3.00;99.90;;;;;;5025053;28;20659;-76
2022/01/08 00:13:24;;;;;;;1.50;1.38;;;2.90;99.90;;;;;;5023861;28;20297;-76
2022/01/08 00:15:52;;;;;;;2.60;1.45;;;2.80;99.90;;;;;;5027861;28;20201;-77
2022/01/08 00:18:19;;;;;;;1.75;1.13;;;2.80;99.90;;;;;;5020487;28;20210;-75
2022/01/08 00:20:46;;;;;;;1.63;1.30;;;2.80;99.90;;;;;;5026133;28;20231;-76
2022/01/08 00:23:13;;;;;;;1.63;1.40;;;2.80;99.90;;;;;;5025335;28;20207;-75
2022/01/08 00:25:40;;;;;;;2.10;1.52;;;2.80;99.90;;;;;;5023894;28;20201;-77
2022/01/08 00:28:07;;;;;;;2.65;1.30;;;2.90;99.90;;;;;;5023926;28;20198;-75
2022/01/08 00:30:34;;;;;;;1.30;1.20;;;2.90;99.90;;;;;;5018633;28;20299;-76
2022/01/08 00:33:03;;;;;;;1.30;1.20;;;2.90;99.90;;;;;;5025660;28;20241;-76
2022/01/08 00:35:31;;;;;;;1.83;1.48;;;2.80;99.90;;;;;;5024384;28;20194;-76
2022/01/08 00:37:58;;;;;;;1.35;1.17;;;2.80;99.90;;;;;;5024724;28;20592;-76
2022/01/08 00:40:26;;;;;;;1.63;1.52;;;2.90;99.90;;;;;;5026292;28;20231;-76
2022/01/08 00:42:52;;;;;;;1.80;1.58;;;2.80;99.90;;;;;;5025953;28;20198;-75
2022/01/08 00:45:19;;;;;;;2.28;1.63;;;2.80;99.90;;;;;;5026119;28;20200;-76
2022/01/08 00:47:46;;;;;;;2.60;1.83;;;2.80;99.90;;;;;;5024020;28;20201;-76
2022/01/08 00:50:15;;;;;;;2.13;1.90;;;2.70;99.90;;;;;;5028871;28;20546;-76
2022/01/08 00:52:43;;;;;;;1.80;1.70;;;2.70;99.90;;;;;;5023813;28;20208;-76
2022/01/08 00:55:11;;;;;;;4.82;1.83;;;2.60;99.90;;;;;;5026179;28;20201;-76
2022/01/08 00:57:38;;;;;;;3.20;2.35;;;2.60;99.90;;;;;;5027991;28;20206;-76
2022/01/08 01:00:11;;;;;;;2.40;2.20;;;2.50;99.90;;;;;;5026492;28;20245;-76
2022/01/08 01:02:39;;;;;;;2.35;2.15;;;2.60;99.90;;;;;;5022643;28;20202;-76
2022/01/08 01:05:07;;;;;;;3.08;2.47;;;2.60;99.90;;;;;;5027572;28;20217;-75
2022/01/08 01:07:35;;;;;;;3.38;2.28;;;2.60;99.90;;;;;;5027643;28;20202;-75
2022/01/08 01:10:03;;;;;;;4.28;2.20;;;2.50;99.90;;;;;;5023628;28;20305;-76
2022/01/08 01:12:30;;;;;;;3.55;2.50;;;2.50;99.90;;;;;;5023673;28;20207;-76
2022/01/08 01:14:57;;;;;;;2.70;2.50;;;2.50;99.90;;;;;;5025669;28;20202;-76
2022/01/08 01:17:24;;;;;;;2.85;2.40;;;2.50;99.90;;;;;;5029723;28;20200;-76
2022/01/08 01:19:51;;;;;;;2.85;2.50;;;2.50;99.90;;;;;;5026725;28;20232;-76
2022/01/08 01:22:21;;;;;;;2.38;2.17;;;2.50;99.90;;;;;;5029893;28;20212;-76
2022/01/08 01:24:51;;;;;;;2.40;2.10;;;2.60;99.90;;;;;;5022015;28;20195;-76
2022/01/08 01:27:49;;;;;;;2.72;2.40;;;2.60;99.90;;;;;;5024501;28;20204;-76
2022/01/08 01:30:16;;;;;;;3.40;3.03;;;2.60;99.90;;;;;;5022755;28;20759;-76
2022/01/08 01:41:19;;;;;;;3.38;2.70;;;2.60;99.90;;;;;;5025676;28;20222;-76
2022/01/08 01:47:04;;;;;;;2.13;2.03;;;2.60;99.90;;;;;;5022182;28;20205;-76
2022/01/08 01:49:32;;;;;;;2.75;2.45;;;2.60;99.90;;;;;;5025033;28;20767;-76
2022/01/08 01:52:00;;;;;;;2.75;2.35;;;2.60;99.90;;;;;;5026308;28;20195;-76
2022/01/08 01:54:28;;;;;;;2.58;2.38;;;2.60;99.90;;;;;;5033928;28;20209;-76
2022/01/08 01:56:58;;;;;;;3.58;2.20;;;2.60;99.90;;;;;;5030725;28;20210;-76
2022/01/08 01:59:25;;;;;;;3.47;2.13;;;2.60;99.90;;;;;;5029336;28;20214;-76
2022/01/08 02:01:53;;;;;;;2.95;2.25;;;2.60;99.90;;;;;;5028606;28;20284;-75
2022/01/08 02:04:20;;;;;;;2.72;2.17;;;2.60;99.90;;;;;;5031804;28;20205;-75
2022/01/08 02:06:49;;;;;;;2.13;2.03;;;2.60;99.90;;;;;;5031964;28;20198;-76
2022/01/08 02:09:16;;;;;;;2.35;1.73;;;2.70;99.90;;;;;;5029316;28;20219;-76
2022/01/08 02:12:02;;;;;;;1.70;1.60;;;2.70;99.90;;;;;;5023046;28;20293;-76
2022/01/08 02:14:30;;;;;;;2.28;1.80;;;2.60;99.90;;;;;;5026657;28;20193;-76
2022/01/08 02:16:58;;;;;;;2.70;2.50;;;2.70;99.90;;;;;;5025164;28;20566;-76
2022/01/08 02:19:25;;;;;;;1.70;1.60;;;2.70;99.90;;;;;;5027538;28;20216;-75
2022/01/08 02:21:56;;;;;;;2.25;1.90;;;2.80;99.90;;;;;;5024194;28;20199;-77
2022/01/08 02:24:24;;;;;;;2.25;1.77;;;2.80;99.90;;;;;;5023772;28;20239;-76
2022/01/08 02:26:52;;;;;;;2.42;2.20;;;2.80;99.90;;;;;;5030771;28;20194;-76
2022/01/08 02:29:21;;;;;;;2.63;1.80;;;2.80;99.90;;;;;;5031258;28;20304;-76
2022/01/08 02:31:55;;;;;;;2.72;2.40;;;2.80;99.90;;;;;;5014984;28;20198;-76
2022/01/08 02:34:22;;;;;;;4.40;2.30;;;2.80;99.90;;;;;;5029054;28;20204;-75
2022/01/08 02:36:49;;;;;;;3.03;2.10;;;2.80;99.90;;;;;;5029219;28;20665;-76
2022/01/08 02:39:17;;;;;;;3.90;2.42;;;2.80;99.90;;;;;;5032865;28;20217;-74
2022/01/08 02:41:45;;;;;;;2.55;2.33;;;2.80;99.90;;;;;;5031429;28;20787;-76
2022/01/08 02:44:12;;;;;;;2.55;2.30;;;2.80;99.90;;;;;;5028391;28;20200;-76
2022/01/08 02:46:39;;;;;;;3.10;2.40;;;2.90;99.90;;;;;;5016368;28;20634;-75
2022/01/08 02:49:06;;;;;;;2.30;2.10;;;2.90;99.90;;;;;;5029659;28;20213;-75
2022/01/08 02:51:35;;;;;;;2.50;2.10;;;2.80;99.90;;;;;;5029163;28;20216;-76
2022/01/08 02:54:02;;;;;;;2.75;2.45;;;2.80;99.90;;;;;;5020626;28;20203;-74
2022/01/08 02:56:31;;;;;;;3.03;2.30;;;2.80;99.90;;;;;;5026236;28;20604;-76
2022/01/08 02:58:58;;;;;;;3.65;1.98;;;2.80;99.90;;;;;;5025072;28;20326;-76
2022/01/08 03:01:25;;;;;;;2.78;2.10;;;2.80;99.90;;;;;;5025792;28;20762;-76
2022/01/08 03:03:56;;;;;;;2.30;1.95;;;2.80;99.90;;;;;;5028135;28;20296;-75
2022/01/08 03:06:23;;;;;;;2.83;2.05;;;2.80;99.90;;;;;;5033360;28;20184;-77
2022/01/08 03:08:50;;;;;;;2.60;2.17;;;2.80;99.90;;;;;;5044812;28;20282;-76
2022/01/08 03:11:17;;;;;;;1.80;1.70;;;2.90;99.90;;;;;;5030076;28;20205;-76
2022/01/08 03:13:45;;;;;;;2.78;2.10;;;2.90;99.90;;;;;;5033770;28;20237;-75
2022/01/08 03:16:14;;;;;;;3.08;1.98;;;2.90;99.90;;;;;;5040801;28;20271;-74
2022/01/08 03:18:41;;;;;;;2.85;1.90;;;2.90;99.90;;;;;;5046701;28;20289;-75
2022/01/08 03:21:14;;;;;;;1.55;1.40;;;2.90;99.90;;;;;;5039208;28;20711;-76
2022/01/08 03:23:48;;;;;;;1.42;1.33;;;3.00;99.90;;;;;;5024222;28;20198;-76
2022/01/08 03:26:16;;;;;;;1.95;1.40;;;3.20;99.90;;;;;;5031370;28;20195;-75
2022/01/08 03:28:45;;;;;;;1.42;1.30;;;3.30;99.90;;;;;;5044589;28;20241;-77
2022/01/08 03:31:14;;;;;;;1.45;1.35;;;3.30;99.90;;;;;;5041851;28;20182;-74
2022/01/08 03:33:42;;;;;;;1.70;1.38;;;3.40;99.90;;;;;;5042686;28;20225;-74
2022/01/08 03:36:09;;;;;;;1.60;1.50;;;3.40;99.90;;;;;;5039987;28;20258;-75
2022/01/08 03:38:36;;;;;;;1.50;1.38;;;3.30;99.90;;;;;;5024996;28;20225;-76
2022/01/08 03:41:04;;;;;;;1.63;1.50;;;3.30;99.90;;;;;;5029802;28;20317;-75
2022/01/08 03:43:31;;;;;;;1.77;1.67;;;3.20;99.90;;;;;;5026031;28;20281;-76
2022/01/08 03:46:01;;;;;;;1.80;1.70;;;3.20;99.90;;;;;;5028470;28;20228;-76
2022/01/08 03:48:30;;;;;;;1.92;1.73;;;3.10;99.90;;;;;;5026644;28;20243;-75
2022/01/08 03:50:58;;;;;;;2.38;1.90;;;3.00;99.90;;;;;;5029526;28;20237;-76
2022/01/08 03:53:26;;;;;;;2.75;2.25;;;3.00;99.90;;;;;;5026992;28;20195;-76
2022/01/08 03:55:53;;;;;;;2.38;1.90;;;2.90;99.90;;;;;;5024900;28;20217;-76
2022/01/08 03:58:21;;;;;;;2.10;2.00;;;2.90;99.90;;;;;;5022421;28;21054;-76
2022/01/08 04:00:48;;;;;;;2.95;2.45;;;2.80;99.90;;;;;;5028323;28;20227;-76
2022/01/08 04:03:18;;;;;;;2.45;2.20;;;2.80;99.90;;;;;;5030501;28;20267;-76
2022/01/08 04:05:47;;;;;;;2.42;2.22;;;2.70;99.90;;;;;;5030656;28;20585;-76
2022/01/08 04:08:14;;;;;;;2.80;2.60;;;2.70;99.90;;;;;;5028617;28;20217;-77
2022/01/08 04:10:41;;;;;;;2.65;2.45;;;2.70;99.90;;;;;;5029958;28;20290;-77
2022/01/08 04:13:13;;;;;;;3.00;2.80;;;2.60;99.90;;;;;;5026686;28;20207;-77
2022/01/08 04:15:42;;;;;;;2.80;2.60;;;2.60;99.90;;;;;;5028357;28;20247;-77
2022/01/08 04:18:10;;;;;;;3.10;2.90;;;2.60;99.90;;;;;;5026799;28;20221;-77
2022/01/08 04:20:50;;;;;;;2.30;2.13;;;2.50;99.90;;;;;;5025079;28;20221;-77
2022/01/08 04:23:20;;;;;;;2.80;2.55;;;2.60;99.90;;;;;;5025447;28;20775;-77
2022/01/08 04:25:48;;;;;;;2.60;2.40;;;2.60;99.90;;;;;;5025749;28;20205;-77
2022/01/08 04:28:15;;;;;;;2.80;2.40;;;2.60;99.90;;;;;;5023203;28;21042;-77
2022/01/08 04:30:43;;;;;;;2.65;2.45;;;2.60;99.90;;;;;;5026868;28;20198;-77
2022/01/08 04:33:10;;;;;;;2.88;2.20;;;2.70;99.90;;;;;;5024231;28;20664;-76
2022/01/08 04:35:39;;;;;;;2.38;1.95;;;2.70;99.90;;;;;;5025890;28;20673;-77
2022/01/08 04:38:06;;;;;;;2.53;2.10;;;2.80;99.90;;;;;;5022616;28;20217;-77
2022/01/08 04:40:34;;;;;;;2.33;1.80;;;2.80;99.90;;;;;;5024199;28;20236;-77
2022/01/08 04:43:02;;;;;;;1.80;1.70;;;2.90;99.90;;;;;;5027309;28;20199;-77
2022/01/08 04:45:30;;;;;;;2.30;2.10;;;2.90;99.90;;;;;;5019148;28;20788;-77
2022/01/08 04:47:58;;;;;;;2.47;2.10;;;2.90;99.90;;;;;;5027892;28;20240;-77
2022/01/08 04:50:26;;;;;;;2.65;2.45;;;3.00;99.90;;;;;;5023276;28;20535;-77
2022/01/08 04:52:55;;;;;;;2.55;2.35;;;2.90;99.90;;;;;;5027666;28;20220;-77
2022/01/08 04:55:22;;;;;;;2.22;2.03;;;2.90;99.90;;;;;;5026355;28;20206;-76
2022/01/08 04:57:49;;;;;;;2.13;2.00;;;2.80;99.90;;;;;;5028867;28;20217;-78
2022/01/08 05:00:18;;;;;;;2.00;1.80;;;2.80;99.90;;;;;;5025021;28;20811;-78
2022/01/08 05:02:45;;;;;;;2.50;2.30;;;2.70;99.90;;;;;;5021969;28;20207;-78
2022/01/08 05:05:12;;;;;;;2.28;1.92;;;2.70;99.90;;;;;;5026610;28;20347;-78
2022/01/08 05:07:40;;;;;;;2.60;1.92;;;2.60;99.90;;;;;;5022175;28;20592;-78
2022/01/08 05:10:09;;;;;;;2.22;2.03;;;2.50;99.90;;;;;;5023068;28;20217;-78
2022/01/08 05:12:36;;;;;;;2.20;2.00;;;2.30;99.90;;;;;;5022642;28;20220;-75
2022/01/08 05:15:04;;;;;;;2.60;2.30;;;2.20;99.90;;;;;;5027308;28;20284;-76
2022/01/08 05:17:34;;;;;;;3.33;2.67;;;2.00;99.90;;;;;;5027297;28;20190;-76
2022/01/08 05:20:03;;;;;;;2.90;2.60;;;1.90;99.90;;;;;;5023201;28;20201;-76
2022/01/08 05:22:42;;;;;;;4.38;2.90;;;1.90;99.90;;;;;;5024854;28;20747;-76
2022/01/08 05:25:11;;;;;;;2.42;2.22;;;1.90;99.90;;;;;;5021860;28;20208;-75
2022/01/08 05:27:38;;;;;;;3.10;2.80;;;1.90;99.90;;;;;;5027433;28;20696;-77
2022/01/08 05:30:06;;;;;;;2.80;2.60;;;1.90;99.90;;;;;;5025807;28;20201;-76
2022/01/08 05:32:34;;;;;;;2.42;2.22;;;1.90;99.90;;;;;;5025064;28;20264;-76
2022/01/08 05:35:01;;;;;;;2.35;2.00;;;1.90;99.90;;;;;;5027852;28;20305;-76
2022/01/08 05:37:28;;;;;;;2.05;1.85;;;1.90;99.90;;;;;;5024510;28;20641;-76
2022/01/08 05:39:55;;;;;;;1.50;1.33;;;1.90;99.90;;;;;;5026499;28;20572;-76
2022/01/08 05:42:23;;;;;;;1.88;1.60;;;1.90;99.90;;;;;;5025157;28;20325;-76
2022/01/08 05:44:50;;;;;;;1.52;1.42;;;1.90;99.90;;;;;;5024090;28;20190;-76
2022/01/08 05:47:20;;;;;;;1.20;1.10;;;1.90;99.90;;;;;;5019806;28;20285;-76
2022/01/08 05:49:47;;;;;;;1.50;1.05;;;1.90;99.90;;;;;;5025871;28;20206;-76
2022/01/08 05:52:14;;;;;;;1.50;1.20;;;1.80;99.90;;;;;;5021908;28;20193;-78
2022/01/08 05:54:42;;;;;;;1.27;1.17;;;1.80;99.90;;;;;;5027565;28;20209;-76
2022/01/08 05:57:09;;;;;;;1.50;1.40;;;1.90;99.90;;;;;;5025435;28;20202;-75
2022/01/08 05:59:37;;;;;;;1.75;1.65;;;1.90;99.90;;;;;;5027658;28;20222;-76
2022/01/08 06:02:05;;;;;;;1.83;1.73;;;2.00;99.90;;;;;;5024670;28;20228;-76
2022/01/08 06:04:32;;;;;;;1.50;1.40;;;2.00;99.90;;;;;;5012723;28;20228;-76
2022/01/08 06:06:59;;;;;;;1.60;1.50;;;2.10;99.90;;;;;;5029435;28;20198;-76
2022/01/08 06:09:26;;;;;;;1.80;1.70;;;2.10;99.90;;;;;;5023237;28;20583;-77
2022/01/08 06:11:53;;;;;;;1.30;1.20;;;2.10;99.90;;;;;;5027573;28;20209;-76
2022/01/08 06:14:20;;;;;;;1.50;1.40;;;2.10;99.90;;;;;;5026484;28;20198;-77
2022/01/08 06:16:49;;;;;;;1.05;1.05;;;2.10;99.90;;;;;;5029777;28;20665;-76
2022/01/08 06:19:16;;;;;;;1.15;1.05;;;2.00;99.90;;;;;;5027261;28;20349;-77
2022/01/08 06:21:44;;;;;;;1.00;1.00;;;1.90;99.90;;;;;;5027948;28;20308;-76
2022/01/08 06:24:11;;;;;;;1.00;1.00;;;1.90;99.90;;;;;;5030445;28;20659;-76
2022/01/08 06:26:38;;;;;;;0.95;0.95;;;1.90;99.90;;;;;;5028887;28;20288;-76
2022/01/08 06:29:05;;;;;;;1.00;1.00;;;1.90;99.90;;;;;;5022913;28;20689;-76
2022/01/08 06:31:31;;;;;;;1.20;1.10;;;1.80;99.90;;;;;;5024604;28;20204;-77
2022/01/08 06:34:00;;;;;;;1.55;1.45;;;1.80;99.90;;;;;;5027067;28;20315;-77
2022/01/08 06:36:27;;;;;;;1.23;1.13;;;1.80;99.90;;;;;;5023903;28;20290;-76
2022/01/08 06:38:54;;;;;;;1.75;1.65;;;1.70;99.90;;;;;;5025733;28;20223;-76
2022/01/08 06:41:22;;;;;;;1.95;1.40;;;1.70;99.90;;;;;;5027775;28;20314;-76
2022/01/08 06:43:49;;;;;;;1.60;1.50;;;1.80;99.90;;;;;;5027182;28;20599;-76
2022/01/08 06:46:16;;;;;;;1.70;1.50;;;1.80;99.90;;;;;;5024142;28;20230;-77
2022/01/08 06:48:43;;;;;;;1.60;1.50;;;1.80;99.90;;;;;;5031129;28;20305;-78
2022/01/08 06:51:11;;;;;;;1.50;1.40;;;1.80;99.90;;;;;;5030823;28;20544;-76
2022/01/08 06:53:38;;;;;;;1.70;1.60;;;1.80;99.90;;;;;;5026515;28;20216;-76
2022/01/08 06:56:05;;;;;;;1.65;1.55;;;1.80;99.90;;;;;;5024349;28;20194;-77
2022/01/08 06:58:33;;;;;;;1.50;1.40;;;1.90;99.90;;;;;;5030714;28;20234;-78
2022/01/08 07:00:59;;;;;;;1.90;1.80;;;1.90;99.90;;;;;;5028542;28;20195;-79
2022/01/08 07:03:26;;;;;;;1.70;1.60;;;1.90;99.90;;;;;;5023238;28;20319;-77
2022/01/08 07:05:53;;;;;;;1.88;1.75;;;1.90;99.90;;;;;;5031372;28;20217;-77
2022/01/08 07:08:22;;;;;;;1.80;1.70;;;1.90;99.90;;;;;;5019166;28;20218;-77
2022/01/08 07:10:49;;;;;;;2.20;2.00;;;2.00;99.90;;;;;;5029277;28;20207;-77
2022/01/08 07:13:15;;;;;;;2.22;2.13;;;2.00;99.90;;;;;;5021536;28;20377;-81
2022/01/08 07:15:42;;;;;;;1.95;1.80;;;2.00;99.90;;;;;;5029067;28;20250;-76
2022/01/08 07:18:09;;;;;;;2.40;2.20;;;2.00;99.90;;;;;;5020764;28;20228;-76
2022/01/08 07:20:36;;;;;;;2.00;1.90;;;2.00;99.90;;;;;;5026388;28;20289;-76
2022/01/08 07:23:03;;;;;;;3.35;2.70;;;2.00;99.90;;;;;;5027401;28;20222;-76
2022/01/08 07:25:32;;;;;;;2.17;1.98;;;1.90;99.90;;;;;;5029095;28;20289;-81
2022/01/08 07:27:59;;;;;;;4.15;3.22;;;1.90;99.90;;;;;;5024674;28;20218;-76
2022/01/08 07:30:26;;;;;;;2.85;2.35;;;1.90;99.90;;;;;;5027995;28;20202;-77
2022/01/08 07:32:53;;;;;;;2.28;2.08;;;1.80;99.90;;;;;;5027532;28;20314;-76
2022/01/08 07:35:22;;;;;;;3.08;2.33;;;1.90;99.90;;;;;;5026333;28;20194;-77
2022/01/08 07:37:51;;;;;;;3.00;2.80;;;1.80;99.90;;;;;;5020094;28;20220;-77
2022/01/08 07:40:18;;;;;;;3.88;3.00;;;1.90;99.90;;;;;;5022478;28;20194;-77
2022/01/08 07:42:47;;;;;;;2.60;2.40;;;1.90;99.90;;;;;;5020809;28;20240;-77
2022/01/08 07:45:14;;;;;;;3.30;3.00;;;1.90;99.90;;;;;;5020657;28;20194;-77
2022/01/08 07:47:42;;;;;;;5.03;3.50;;;1.90;99.90;;;;;;5011216;28;20716;-77
2022/01/08 07:50:09;;;;;;;4.10;3.45;;;1.90;99.90;;;;;;5024839;28;20253;-77
2022/01/08 07:52:36;;;;;;;5.65;3.92;;;1.90;99.90;;;;;;5023507;28;20205;-77
2022/01/08 07:55:04;;;;;;;4.45;4.00;;;1.90;99.90;;;;;;5023309;28;20222;-76
2022/01/08 07:57:31;;;;;;;4.78;4.10;;;1.90;99.90;;;;;;5020937;28;20221;-76
2022/01/08 07:59:59;;;;;;;4.53;4.00;;;1.90;99.90;;;;;;5024545;28;20679;-76
2022/01/08 08:02:27;;;;;;;6.03;3.60;;;1.90;99.90;;;;;;5024906;28;20246;-74
2022/01/08 08:04:53;;;;;;;3.83;3.47;;;1.90;99.90;;;;;;5026298;28;20229;-77
2022/01/08 08:07:28;;;;;;;3.42;2.90;;;1.90;99.90;;;;;;5029751;28;20222;-77
2022/01/08 08:09:56;;;;;;;3.50;3.20;;;1.90;99.90;;;;;;5023971;28;20288;-76
2022/01/08 08:12:23;;;;;;;3.08;2.78;;;2.00;99.90;;;;;;5028715;28;20198;-77
2022/01/08 08:14:50;;;;;;;3.03;2.65;;;2.00;99.90;;;;;;5020572;28;20568;-76
2022/01/08 08:17:19;;;;;;;2.75;2.42;;;2.10;99.90;;;;;;5023916;28;20306;-77
2022/01/08 08:19:45;;;;;;;2.47;2.33;;;2.10;99.90;;;;;;5026664;28;20199;-72
2022/01/08 08:22:12;;;;;;;2.92;2.65;;;2.10;99.90;;;;;;5027296;28;20224;-76
2022/01/08 08:24:39;;;;;;;2.72;2.17;;;2.20;99.90;;;;;;5024179;28;20198;-76
2022/01/08 08:27:06;;;;;;;2.67;2.47;;;2.20;99.90;;;;;;5024109;28;20190;-77
2022/01/08 08:29:33;;;;;;;2.40;2.20;;;2.20;99.90;;;;;;5027988;28;20313;-76
2022/01/08 08:32:00;;;;;;;3.00;2.80;;;2.30;99.90;;;;;;5029182;28;20205;-78
2022/01/08 08:34:28;;;;;;;2.67;2.45;;;2.30;99.90;;;;;;5014545;28;20284;-77
2022/01/08 08:36:55;;;;;;;2.80;2.60;;;2.30;99.90;;;;;;5025192;28;20190;-77
2022/01/08 08:39:24;;;;;;;2.60;2.30;;;2.30;99.90;;;;;;5024893;28;20194;-76
2022/01/08 08:41:52;;;;;;;4.38;2.30;;;2.40;99.90;;;;;;5019985;28;20222;-77
2022/01/08 08:44:19;;;;;;;4.00;2.50;;;2.40;99.90;;;;;;5022176;28;20205;-77
2022/01/08 08:46:46;;;;;;;2.25;1.98;;;2.50;99.90;;;;;;5024229;28;20202;-77
2022/01/08 08:49:13;;;;;;;2.10;1.90;;;2.60;99.90;;;;;;5029359;28;20588;-78
2022/01/08 08:51:41;;;;;;;2.10;1.85;;;2.70;99.90;;;;;;5025840;28;20253;-77
2022/01/08 08:54:08;;;;;;;3.92;2.92;;;2.80;99.90;;;;;;5028763;28;20201;-77
2022/01/08 08:56:35;;;;;;;3.35;3.05;;;2.80;99.90;;;;;;5028852;28;20216;-77
2022/01/08 08:59:02;;;;;;;3.08;2.60;;;2.80;99.90;;;;;;5023100;28;20223;-77
2022/01/08 09:01:29;;;;;;;2.90;2.05;;;2.80;99.90;;;;;;5016014;28;20208;-78
2022/01/08 09:03:56;;;;;;;2.50;2.30;;;2.90;99.90;;;;;;5022224;28;20261;-79
2022/01/08 09:06:26;;;;;;;4.78;2.55;;;2.70;99.90;;;;;;5023703;28;20285;-82
2022/01/08 09:08:54;;;;;;;3.13;2.55;;;2.70;99.90;;;;;;5023295;28;20221;-78
2022/01/08 09:11:21;;;;;;;4.40;2.65;;;2.70;99.90;;;;;;5022719;28;20197;-77
2022/01/08 09:13:48;;;;;;;4.07;2.40;;;2.80;99.90;;;;;;5029543;28;20208;-78
2022/01/08 09:16:15;;;;;;;4.03;2.90;;;2.80;99.90;;;;;;5018258;28;20202;-78
2022/01/08 09:18:43;;;;;;;3.28;2.55;;;2.90;99.90;;;;;;5025238;28;20321;-77
2022/01/08 09:21:11;;;;;;;3.50;2.38;;;2.90;99.90;;;;;;5029344;28;20207;-77
2022/01/08 09:23:38;;;;;;;2.70;2.13;;;3.00;99.90;;;;;;5026580;28;20333;-78
2022/01/08 09:26:07;;;;;;;2.40;2.20;;;3.10;99.90;;;;;;5024808;28;20280;-78
2022/01/08 09:28:34;;;;;;;3.70;2.10;;;3.30;99.90;;;;;;5027984;28;20295;-77
2022/01/08 09:31:02;;;;;;;2.38;2.15;;;3.30;99.90;;;;;;5032339;28;20583;-78
2022/01/08 09:33:30;;;;;;;1.95;1.70;;;3.40;99.90;;;;;;5030358;28;20252;-78
2022/01/08 09:35:57;;;;;;;4.35;2.22;;;3.30;99.90;;;;;;5028655;28;20217;-77
2022/01/08 09:38:26;;;;;;;2.85;2.28;;;3.40;99.90;;;;;;5028838;28;20221;-77
2022/01/08 09:40:53;;;;;;;2.88;2.10;;;3.20;99.90;;;;;;5029132;28;20206;-78
2022/01/08 09:43:21;;;;;;;3.00;2.20;;;3.10;99.90;;;;;;5024514;28;20242;-77
2022/01/08 09:45:48;;;;;;;2.80;2.20;;;3.00;99.90;;;;;;5032641;28;20204;-76
2022/01/08 09:48:16;;;;;;;3.92;2.65;;;3.00;99.90;;;;;;5028094;28;20246;-77
2022/01/08 09:50:43;;;;;;;3.10;2.30;;;3.00;99.90;;;;;;5030899;28;20196;-77
2022/01/08 09:53:10;;;;;;;8.75;2.78;;;3.20;99.90;;;;;;5031335;28;20202;-77
2022/01/08 09:55:37;;;;;;;4.43;2.28;;;3.20;99.90;;;;;;5037718;28;20196;-75
2022/01/08 09:58:04;;;;;;;3.72;2.00;;;3.40;99.90;;;;;;5039196;28;20227;-74
2022/01/08 10:00:35;;;;;;;4.10;2.20;;;3.60;99.90;;;;;;5050728;28;20256;-80
2022/01/08 10:03:20;;;;;;;2.75;2.00;;;3.60;99.90;;;;;;5030454;28;20681;-76
2022/01/08 10:05:50;;;;;;;3.85;2.15;;;3.50;99.90;;;;;;5023747;28;20555;-76
2022/01/08 10:08:23;;;;;;;2.25;2.05;;;3.40;99.90;;;;;;5042333;28;20225;-75
2022/01/08 10:10:59;;;;;;;3.25;2.20;;;3.40;99.90;;;;;;5045518;28;20219;-78
2022/01/08 10:13:29;;;;;;;2.15;1.70;;;3.40;99.90;;;;;;5032062;28;20259;-75
2022/01/08 10:18:45;;;;;;;2.15;1.60;;;3.50;99.90;;;;;;5044809;28;20224;-75
2022/01/08 10:21:17;;;;;;;3.20;1.90;;;3.70;99.90;;;;;;5031547;28;20201;-76
2022/01/08 10:23:46;;;;;;;3.95;1.90;;;4.10;99.90;;;;;;5027742;28;20224;-76
2022/01/08 10:26:15;;;;;;;6.45;2.00;;;4.30;99.90;;;;;;5025510;28;20227;-76
2022/01/08 10:28:44;;;;;;;4.20;2.25;;;4.40;99.90;;;;;;5024702;28;20584;-77
2022/01/08 10:31:18;;;;;;;3.90;2.63;;;4.80;99.90;;;;;;5022090;28;20724;-77
2022/01/08 10:33:48;;;;;;;2.10;1.60;;;5.10;99.90;;;;;;5028747;28;20248;-76
2022/01/08 10:36:15;;;;;;;4.57;1.90;;;5.60;99.90;;;;;;5030334;28;20217;-82
2022/01/08 10:38:42;;;;;;;2.65;2.00;;;5.80;99.90;;;;;;5025764;28;20218;-75
2022/01/08 10:41:15;;;;;;;4.72;2.10;;;5.70;99.90;;;;;;5029726;28;20197;-76
2022/01/08 10:43:42;;;;;;;3.47;1.83;;;6.00;99.90;;;;;;5021194;28;20218;-77
2022/01/08 10:46:11;;;;;;;2.20;1.65;;;6.10;99.90;;;;;;5030126;28;20200;-78
2022/01/08 10:48:44;;;;;;;2.95;2.03;;;6.20;99.90;;;;;;5028139;28;20225;-77
2022/01/08 10:51:15;;;;;;;5.78;2.25;;;6.40;99.90;;;;;;5015430;28;20264;-77
2022/01/08 10:54:08;;;;;;;2.55;1.80;;;7.00;99.90;;;;;;5023907;28;20284;-78
2022/01/08 10:56:37;;;;;;;2.30;1.70;;;6.90;99.90;;;;;;4986892;28;20206;-77
2022/01/08 10:59:13;;;;;;;4.00;1.80;;;7.00;99.90;;;;;;5022304;28;20194;-77
2022/01/08 11:01:55;;;;;;;2.78;1.95;;;7.10;99.90;;;;;;5017003;28;20210;-76
2022/01/08 11:04:39;;;;;;;2.35;1.95;;;7.00;99.90;;;;;;5029072;28;20853;-77
2022/01/08 11:07:08;;;;;;;2.95;1.85;;;7.10;99.90;;;;;;5025982;28;20216;-77
2022/01/08 11:09:36;;;;;;;2.50;1.70;;;7.10;99.90;;;;;;5028125;28;20228;-75
2022/01/08 11:12:05;;;;;;;2.53;1.70;;;6.90;99.90;;;;;;5017391;28;20201;-77
2022/01/08 11:17:33;;;;;;;3.97;2.28;;;5.50;99.90;;;;;;5026117;28;20229;-76
2022/01/08 11:20:04;;;;;;;3.80;1.92;;;5.00;99.90;;;;;;5024485;28;20212;-80
2022/01/08 11:22:33;;;;;;;3.45;1.95;;;4.70;99.90;;;;;;5024877;28;20194;-77
2022/01/08 11:25:04;;;;;;;3.17;2.20;;;4.70;99.90;;;;;;5020852;28;20665;-79
2022/01/08 11:27:40;;;;;;;4.15;2.10;;;5.40;99.90;;;;;;5023403;28;20229;-77
2022/01/08 11:30:11;;;;;;;3.28;1.95;;;5.60;99.90;;;;;;5026390;28;20223;-77
2022/01/08 11:32:39;;;;;;;7.50;2.50;;;5.50;99.90;;;;;;5025050;28;20252;-78
2022/01/08 11:35:11;;;;;;;2.92;2.00;;;5.20;99.90;;;;;;5027174;28;20201;-78
2022/01/08 11:37:38;;;;;;;3.85;2.03;;;5.00;99.90;;;;;;5023762;28;20213;-76
2022/01/08 11:40:08;;;;;;;2.97;1.80;;;4.90;99.90;;;;;;5026470;28;20209;-76
2022/01/08 11:42:38;;;;;;;3.63;1.90;;;4.90;99.90;;;;;;5022924;28;20208;-77
2022/01/08 11:45:08;;;;;;;3.17;1.95;;;4.90;99.90;;;;;;5026278;28;20749;-77
2022/01/08 11:47:36;;;;;;;2.47;1.90;;;4.80;99.90;;;;;;5024706;28;20939;-75
2022/01/08 11:50:06;;;;;;;4.20;1.75;;;4.70;99.90;;;;;;5025329;28;20647;-75
2022/01/08 11:52:34;;;;;;;3.97;2.00;;;4.50;99.90;;;;;;5021662;28;20201;-75
2022/01/08 11:55:02;;;;;;;3.78;1.80;;;4.30;99.90;;;;;;5025486;28;20198;-77
2022/01/08 11:57:31;;;;;;;4.15;1.60;;;4.20;99.90;;;;;;5026061;28;20223;-77
2022/01/08 11:59:59;;;;;;;3.08;1.50;;;4.10;99.90;;;;;;5023530;28;20287;-75
2022/01/08 12:02:41;;;;;;;2.60;1.33;;;4.10;99.90;;;;;;5025971;28;20220;-75
2022/01/08 12:05:11;;;;;;;3.05;1.67;;;4.10;99.90;;;;;;5026910;28;20229;-76
2022/01/08 12:07:44;;;;;;;3.67;2.13;;;4.20;99.90;;;;;;5021080;28;20220;-76
2022/01/08 12:10:18;;;;;;;2.15;1.40;;;4.20;99.90;;;;;;5018542;28;20200;-76
2022/01/08 12:12:55;;;;;;;4.03;1.67;;;4.40;99.90;;;;;;5022809;28;20203;-76
2022/01/08 12:15:49;;;;;;;3.80;1.38;;;4.50;99.90;;;;;;5027698;28;20199;-76
2022/01/08 12:18:19;;;;;;;3.13;1.40;;;4.60;99.90;;;;;;5023947;28;20223;-75
2022/01/08 12:20:50;;;;;;;2.90;1.45;;;4.50;99.90;;;;;;5026762;28;20208;-76
2022/01/08 12:23:33;;;;;;;2.20;1.50;;;4.50;99.90;;;;;;5018895;28;20236;-75
2022/01/08 12:26:04;;;;;;;1.80;1.25;;;4.60;99.90;;;;;;5018678;28;20299;-75
2022/01/08 12:28:53;;;;;;;2.05;1.13;;;4.80;99.90;;;;;;5027575;28;20211;-75
2022/01/08 12:31:42;;;;;;;2.10;1.15;;;5.70;99.90;;;;;;5028557;28;20740;-73
2022/01/08 12:34:34;;;;;;;1.92;1.30;;;6.70;99.90;;;;;;5026082;28;20194;-73
2022/01/08 12:37:02;;;;;;;1.98;0.90;;;7.60;99.90;;;;;;5026542;28;20232;-74
2022/01/08 12:39:49;;;;;;;2.78;1.45;;;8.10;99.90;;;;;;5024161;28;20240;-72
2022/01/08 12:42:42;;;;;;;2.95;1.20;;;8.10;99.90;;;;;;5026733;28;20197;-74
2022/01/08 12:45:15;;;;;;;3.92;1.20;;;7.50;99.90;;;;;;5025641;28;20588;-73
2022/01/08 12:47:49;;;;;;;1.75;1.10;;;6.70;99.90;;;;;;5027546;28;20224;-74
2022/01/08 12:50:37;;;;;;;1.20;1.10;;;6.10;99.90;;;;;;5025842;28;20193;-75
2022/01/08 12:53:28;;;;;;;1.92;1.20;;;6.10;99.90;;;;;;5025163;28;20256;-75
2022/01/08 12:56:14;;;;;;;2.97;1.52;;;5.80;99.90;;;;;;4997135;28;20209;-75
2022/01/08 12:58:51;;;;;;;2.05;1.38;;;5.60;99.90;;;;;;5026659;28;20292;-75
2022/01/08 13:01:22;;;;;;;1.90;1.50;;;5.40;99.90;;;;;;5019690;28;20201;-75
2022/01/08 13:03:51;;;;;;;1.15;1.05;;;5.30;99.90;;;;;;5026772;28;20278;-75
2022/01/08 13:06:26;;;;;;;3.63;1.25;;;5.30;99.90;;;;;;5022721;28;20283;-75
2022/01/08 13:08:55;;;;;;;1.73;1.50;;;5.40;99.90;;;;;;5015821;28;20214;-74
2022/01/08 13:11:25;;;;;;;1.40;1.20;;;5.30;99.90;;;;;;5029259;28;20224;-74
2022/01/08 13:13:56;;;;;;;2.67;1.38;;;5.20;99.90;;;;;;5031512;28;20293;-74
2022/01/08 13:16:26;;;;;;;3.38;1.40;;;5.40;99.90;;;;;;5020021;28;20688;-73
2022/01/08 13:18:56;;;;;;;1.70;1.50;;;5.40;99.90;;;;;;5023972;28;20195;-84
2022/01/08 13:21:29;;;;;;;2.38;1.10;;;5.40;99.90;;;;;;5033165;28;20202;-89
2022/01/08 13:24:05;;;;;;;2.75;1.35;;;5.30;99.90;;;;;;5037131;28;20233;-89
2022/01/08 13:26:40;;;;;;;2.05;1.38;;;5.00;99.90;;;;;;5037240;28;20233;-89